sensor_id;sensor_type;location;lat;lon;timestamp;pressure;altitude;pressure_sealevel;temperature;humidity
11124;BME280;5616;42.692;23.312;2023-05-06T00:00:20;95251.97;;;11.95;83.87
11124;BME280;5616;42.692;23.312;2023-05-06T00:02:47;95253.69;;;11.88;83.63
11124;BME280;5616;42.692;23.312;2023-05-06T00:05:14;95250.97;;;11.75;84.68
11124;BME280;5616;42.692;23.312;2023-05-06T00:07:42;95254.09;;;11.71;84.42
11124;BME280;5616;42.692;23.312;2023-05-06T00:10:09;95266.81;;;11.51;86.07
11124;BME280;5616;42.692;23.312;2023-05-06T00:12:38;95258.94;;;11.44;85.79
11124;BME280;5616;42.692;23.312;2023-05-06T00:15:06;95248.16;;;11.41;86.99
11124;BME280;5616;42.692;23.312;2023-05-06T00:17:33;95253.88;;;11.51;86.43
11124;BME280;5616;42.692;23.312;2023-05-06T00:20:00;95248.00;;;11.42;86.26
11124;BME280;5616;42.692;23.312;2023-05-06T00:22:26;95250.78;;;11.12;88.54
11124;BME280;5616;42.692;23.312;2023-05-06T00:24:53;95249.47;;;11.16;88.60
11124;BME280;5616;42.692;23.312;2023-05-06T00:27:20;95252.81;;;11.31;87.63
11124;BME280;5616;42.692;23.312;2023-05-06T00:29:48;95251.13;;;11.23;87.97
11124;BME280;5616;42.692;23.312;2023-05-06T00:32:15;95239.56;;;11.19;88.16
11124;BME280;5616;42.692;23.312;2023-05-06T00:34:42;95247.94;;;11.21;87.98
11124;BME280;5616;42.692;23.312;2023-05-06T00:37:08;95251.03;;;11.31;87.17
11124;BME280;5616;42.692;23.312;2023-05-06T00:39:35;95251.03;;;11.31;87.03
11124;BME280;5616;42.692;23.312;2023-05-06T00:42:02;95249.44;;;11.30;86.43
11124;BME280;5616;42.692;23.312;2023-05-06T00:44:29;95245.31;;;11.36;86.16
11124;BME280;5616;42.692;23.312;2023-05-06T00:46:59;95250.84;;;11.47;85.60
11124;BME280;5616;42.692;23.312;2023-05-06T00:49:28;95251.09;;;11.52;84.86
11124;BME280;5616;42.692;23.312;2023-05-06T00:51:56;95245.00;;;11.24;86.56
11124;BME280;5616;42.692;23.312;2023-05-06T00:54:24;95250.88;;;11.18;86.85
11124;BME280;5616;42.692;23.312;2023-05-06T00:56:51;95248.50;;;11.17;87.25
11124;BME280;5616;42.692;23.312;2023-05-06T00:59:18;95240.03;;;11.08;87.50
11124;BME280;5616;42.692;23.312;2023-05-06T01:01:45;95249.19;;;11.11;87.58
11124;BME280;5616;42.692;23.312;2023-05-06T01:04:13;95245.91;;;11.17;87.69
11124;BME280;5616;42.692;23.312;2023-05-06T01:06:44;95247.84;;;11.15;87.70
11124;BME280;5616;42.692;23.312;2023-05-06T01:09:20;95239.84;;;10.95;88.54
11124;BME280;5616;42.692;23.312;2023-05-06T01:11:52;95243.88;;;10.97;87.83
11124;BME280;5616;42.692;23.312;2023-05-06T01:14:26;95243.16;;;11.03;87.89
11124;BME280;5616;42.692;23.312;2023-05-06T01:16:57;95235.66;;;11.09;88.02
11124;BME280;5616;42.692;23.312;2023-05-06T01:19:36;95242.00;;;11.06;87.87
11124;BME280;5616;42.692;23.312;2023-05-06T01:22:07;95240.28;;;10.98;87.95
11124;BME280;5616;42.692;23.312;2023-05-06T01:24:38;95233.06;;;10.94;88.78
11124;BME280;5616;42.692;23.312;2023-05-06T01:27:05;95230.75;;;10.99;88.12
11124;BME280;5616;42.692;23.312;2023-05-06T01:29:33;95230.50;;;10.79;89.17
11124;BME280;5616;42.692;23.312;2023-05-06T01:32:09;95232.72;;;10.68;89.67
11124;BME280;5616;42.692;23.312;2023-05-06T01:34:42;95235.91;;;10.70;90.42
11124;BME280;5616;42.692;23.312;2023-05-06T01:37:17;95232.72;;;10.68;90.08
11124;BME280;5616;42.692;23.312;2023-05-06T01:39:49;95237.00;;;10.75;90.25
11124;BME280;5616;42.692;23.312;2023-05-06T01:42:17;95234.75;;;10.72;89.64
11124;BME280;5616;42.692;23.312;2023-05-06T01:44:48;95232.81;;;10.74;90.06
11124;BME280;5616;42.692;23.312;2023-05-06T01:47:16;95234.69;;;10.80;89.12
11124;BME280;5616;42.692;23.312;2023-05-06T01:49:43;95221.50;;;10.90;88.57
11124;BME280;5616;42.692;23.312;2023-05-06T01:52:10;95236.91;;;10.98;87.95
11124;BME280;5616;42.692;23.312;2023-05-06T01:54:37;95231.22;;;11.02;86.86
11124;BME280;5616;42.692;23.312;2023-05-06T01:57:05;95235.22;;;11.05;87.56
11124;BME280;5616;42.692;23.312;2023-05-06T01:59:31;95229.53;;;10.95;87.62
11124;BME280;5616;42.692;23.312;2023-05-06T02:01:58;95231.50;;;10.93;87.78
11124;BME280;5616;42.692;23.312;2023-05-06T02:04:25;95230.59;;;10.86;87.96
11124;BME280;5616;42.692;23.312;2023-05-06T02:06:52;95227.66;;;10.74;87.99
11124;BME280;5616;42.692;23.312;2023-05-06T02:09:19;95228.91;;;10.64;88.78
11124;BME280;5616;42.692;23.312;2023-05-06T02:11:52;95230.66;;;10.49;89.54
11124;BME280;5616;42.692;23.312;2023-05-06T02:14:20;95230.47;;;10.50;89.98
11124;BME280;5616;42.692;23.312;2023-05-06T02:16:47;95234.38;;;10.46;91.10
11124;BME280;5616;42.692;23.312;2023-05-06T02:19:13;95234.84;;;10.50;91.02
11124;BME280;5616;42.692;23.312;2023-05-06T02:21:41;95232.38;;;10.56;90.15
11124;BME280;5616;42.692;23.312;2023-05-06T02:24:08;95232.38;;;10.56;90.33
11124;BME280;5616;42.692;23.312;2023-05-06T02:26:35;95232.53;;;10.55;90.20
11124;BME280;5616;42.692;23.312;2023-05-06T02:29:02;95237.22;;;10.51;90.27
11124;BME280;5616;42.692;23.312;2023-05-06T02:31:31;95235.56;;;10.58;90.07
11124;BME280;5616;42.692;23.312;2023-05-06T02:33:58;95238.16;;;10.58;89.72
11124;BME280;5616;42.692;23.312;2023-05-06T02:36:24;95233.00;;;10.58;90.59
11124;BME280;5616;42.692;23.312;2023-05-06T02:38:53;95240.81;;;10.50;90.31
11124;BME280;5616;42.692;23.312;2023-05-06T02:41:20;95234.66;;;10.51;90.51
11124;BME280;5616;42.692;23.312;2023-05-06T02:43:47;95240.28;;;10.55;90.04
11124;BME280;5616;42.692;23.312;2023-05-06T02:46:14;95240.13;;;10.56;89.55
11124;BME280;5616;42.692;23.312;2023-05-06T02:48:42;95232.00;;;10.59;88.97
11124;BME280;5616;42.692;23.312;2023-05-06T02:51:09;95233.59;;;10.46;89.51
11124;BME280;5616;42.692;23.312;2023-05-06T02:53:36;95238.56;;;10.47;89.74
11124;BME280;5616;42.692;23.312;2023-05-06T02:56:03;95240.75;;;10.21;90.57
11124;BME280;5616;42.692;23.312;2023-05-06T02:58:30;95248.88;;;10.10;91.77
11124;BME280;5616;42.692;23.312;2023-05-06T03:00:57;95248.78;;;10.03;91.75
11124;BME280;5616;42.692;23.312;2023-05-06T03:03:24;95251.41;;;9.95;92.30
11124;BME280;5616;42.692;23.312;2023-05-06T03:05:52;95257.53;;;10.17;91.88
11124;BME280;5616;42.692;23.312;2023-05-06T03:08:19;95244.06;;;10.29;91.19
11124;BME280;5616;42.692;23.312;2023-05-06T03:10:45;95243.56;;;10.11;91.01
11124;BME280;5616;42.692;23.312;2023-05-06T03:13:15;95243.78;;;10.02;91.61
11124;BME280;5616;42.692;23.312;2023-05-06T03:15:42;95256.78;;;10.08;91.60
11124;BME280;5616;42.692;23.312;2023-05-06T03:18:09;95246.78;;;10.13;90.96
11124;BME280;5616;42.692;23.312;2023-05-06T03:20:37;95246.53;;;10.23;91.36
11124;BME280;5616;42.692;23.312;2023-05-06T03:23:05;95254.56;;;10.28;91.27
11124;BME280;5616;42.692;23.312;2023-05-06T03:25:32;95265.16;;;10.33;90.82
11124;BME280;5616;42.692;23.312;2023-05-06T03:27:59;95266.06;;;10.40;90.57
11124;BME280;5616;42.692;23.312;2023-05-06T03:30:28;95241.66;;;10.28;90.73
11124;BME280;5616;42.692;23.312;2023-05-06T03:32:59;95268.72;;;10.32;90.59
11124;BME280;5616;42.692;23.312;2023-05-06T03:35:29;95264.38;;;10.32;91.16
11124;BME280;5616;42.692;23.312;2023-05-06T03:37:58;95263.00;;;10.22;91.61
11124;BME280;5616;42.692;23.312;2023-05-06T03:40:31;95265.00;;;10.34;91.33
11124;BME280;5616;42.692;23.312;2023-05-06T03:42:58;95277.56;;;10.37;91.39
11124;BME280;5616;42.692;23.312;2023-05-06T03:45:26;95274.50;;;10.34;91.56
11124;BME280;5616;42.692;23.312;2023-05-06T03:47:54;95273.53;;;10.35;91.60
11124;BME280;5616;42.692;23.312;2023-05-06T03:50:22;95265.97;;;10.33;91.51
11124;BME280;5616;42.692;23.312;2023-05-06T03:52:51;95275.41;;;10.41;91.81
11124;BME280;5616;42.692;23.312;2023-05-06T03:55:19;95279.81;;;10.55;91.13
11124;BME280;5616;42.692;23.312;2023-05-06T03:57:48;95285.16;;;10.68;90.66
11124;BME280;5616;42.692;23.312;2023-05-06T04:00:15;95272.44;;;10.81;89.50
11124;BME280;5616;42.692;23.312;2023-05-06T04:02:42;95279.66;;;10.71;89.07
11124;BME280;5616;42.692;23.312;2023-05-06T04:05:14;95289.19;;;10.85;88.58
11124;BME280;5616;42.692;23.312;2023-05-06T04:07:42;95286.53;;;10.93;88.06
11124;BME280;5616;42.692;23.312;2023-05-06T04:10:10;95294.53;;;10.84;87.45
11124;BME280;5616;42.692;23.312;2023-05-06T04:12:38;95291.59;;;11.01;87.20
11124;BME280;5616;42.692;23.312;2023-05-06T04:15:09;95287.97;;;11.11;86.44
11124;BME280;5616;42.692;23.312;2023-05-06T04:17:36;95299.34;;;11.01;86.48
11124;BME280;5616;42.692;23.312;2023-05-06T04:20:04;95290.38;;;11.27;85.22
11124;BME280;5616;42.692;23.312;2023-05-06T04:22:32;95291.84;;;11.50;84.57
11124;BME280;5616;42.692;23.312;2023-05-06T04:24:59;95291.91;;;11.57;83.71
11124;BME280;5616;42.692;23.312;2023-05-06T04:27:27;95295.81;;;11.82;83.13
11124;BME280;5616;42.692;23.312;2023-05-06T04:29:57;95303.09;;;11.93;81.50
11124;BME280;5616;42.692;23.312;2023-05-06T04:32:27;95297.19;;;11.99;81.59
11124;BME280;5616;42.692;23.312;2023-05-06T04:34:54;95293.66;;;11.86;81.81
11124;BME280;5616;42.692;23.312;2023-05-06T04:37:22;95295.47;;;11.85;82.77
11124;BME280;5616;42.692;23.312;2023-05-06T04:39:56;95298.16;;;11.77;82.58
11124;BME280;5616;42.692;23.312;2023-05-06T04:42:23;95300.56;;;11.79;82.98
11124;BME280;5616;42.692;23.312;2023-05-06T04:45:00;95308.22;;;11.87;82.78
11124;BME280;5616;42.692;23.312;2023-05-06T04:47:32;95297.44;;;12.04;81.73
11124;BME280;5616;42.692;23.312;2023-05-06T04:50:00;95302.38;;;12.20;81.40
11124;BME280;5616;42.692;23.312;2023-05-06T04:52:27;95311.88;;;12.35;79.87
11124;BME280;5616;42.692;23.312;2023-05-06T04:54:54;95313.16;;;12.45;79.86
11124;BME280;5616;42.692;23.312;2023-05-06T04:57:22;95305.41;;;12.45;80.15
11124;BME280;5616;42.692;23.312;2023-05-06T04:59:51;95317.44;;;12.59;79.45
11124;BME280;5616;42.692;23.312;2023-05-06T05:02:18;95315.66;;;12.60;78.39
11124;BME280;5616;42.692;23.312;2023-05-06T05:04:46;95317.56;;;12.72;78.54
11124;BME280;5616;42.692;23.312;2023-05-06T05:07:14;95326.75;;;12.75;77.90
11124;BME280;5616;42.692;23.312;2023-05-06T05:09:41;95329.97;;;12.77;77.69
11124;BME280;5616;42.692;23.312;2023-05-06T05:12:08;95333.84;;;12.87;77.02
11124;BME280;5616;42.692;23.312;2023-05-06T05:14:38;95331.25;;;13.15;75.97
11124;BME280;5616;42.692;23.312;2023-05-06T05:17:07;95327.81;;;13.42;73.94
11124;BME280;5616;42.692;23.312;2023-05-06T05:19:35;95323.16;;;13.72;72.85
11124;BME280;5616;42.692;23.312;2023-05-06T05:22:03;95327.03;;;13.96;71.78
11124;BME280;5616;42.692;23.312;2023-05-06T05:24:32;95338.88;;;14.18;70.91
11124;BME280;5616;42.692;23.312;2023-05-06T05:26:58;95328.97;;;14.41;69.51
11124;BME280;5616;42.692;23.312;2023-05-06T05:29:26;95328.19;;;14.60;67.74
11124;BME280;5616;42.692;23.312;2023-05-06T05:31:53;95335.41;;;14.85;66.58
11124;BME280;5616;42.692;23.312;2023-05-06T05:34:20;95336.59;;;14.95;66.40
11124;BME280;5616;42.692;23.312;2023-05-06T05:36:48;95327.00;;;14.83;67.79
11124;BME280;5616;42.692;23.312;2023-05-06T05:39:16;95326.19;;;14.76;68.01
11124;BME280;5616;42.692;23.312;2023-05-06T05:41:45;95323.00;;;14.80;68.14
11124;BME280;5616;42.692;23.312;2023-05-06T05:44:12;95326.56;;;14.99;67.39
11124;BME280;5616;42.692;23.312;2023-05-06T05:46:39;95328.97;;;15.07;66.24
11124;BME280;5616;42.692;23.312;2023-05-06T05:49:09;95322.78;;;14.88;68.66
11124;BME280;5616;42.692;23.312;2023-05-06T05:51:36;95325.41;;;14.68;69.89
11124;BME280;5616;42.692;23.312;2023-05-06T05:54:04;95321.41;;;14.66;68.40
11124;BME280;5616;42.692;23.312;2023-05-06T05:56:33;95332.41;;;14.75;67.90
11124;BME280;5616;42.692;23.312;2023-05-06T05:59:00;95334.38;;;14.73;67.47
11124;BME280;5616;42.692;23.312;2023-05-06T06:01:27;95331.78;;;14.73;67.56
11124;BME280;5616;42.692;23.312;2023-05-06T06:03:54;95327.41;;;14.66;68.52
11124;BME280;5616;42.692;23.312;2023-05-06T06:06:22;95337.97;;;14.65;67.89
11124;BME280;5616;42.692;23.312;2023-05-06T06:08:50;95340.19;;;14.75;67.75
11124;BME280;5616;42.692;23.312;2023-05-06T06:11:17;95340.59;;;14.85;69.65
11124;BME280;5616;42.692;23.312;2023-05-06T06:13:45;95341.41;;;14.85;68.57
11124;BME280;5616;42.692;23.312;2023-05-06T06:16:13;95347.19;;;14.81;67.59
11124;BME280;5616;42.692;23.312;2023-05-06T06:18:40;95351.78;;;14.79;67.29
11124;BME280;5616;42.692;23.312;2023-05-06T06:21:06;95350.97;;;14.91;66.74
11124;BME280;5616;42.692;23.312;2023-05-06T06:23:34;95345.19;;;14.56;68.15
11124;BME280;5616;42.692;23.312;2023-05-06T06:26:01;95341.59;;;14.70;67.43
11124;BME280;5616;42.692;23.312;2023-05-06T06:28:29;95338.00;;;14.85;66.38
11124;BME280;5616;42.692;23.312;2023-05-06T06:30:57;95335.59;;;14.83;67.88
11124;BME280;5616;42.692;23.312;2023-05-06T06:33:24;95341.78;;;14.89;66.84
11124;BME280;5616;42.692;23.312;2023-05-06T06:35:50;95334.38;;;14.99;66.82
11124;BME280;5616;42.692;23.312;2023-05-06T06:38:17;95339.78;;;15.17;66.96
11124;BME280;5616;42.692;23.312;2023-05-06T06:40:44;95342.38;;;15.17;68.85
11124;BME280;5616;42.692;23.312;2023-05-06T06:43:11;95341.38;;;15.11;67.04
11124;BME280;5616;42.692;23.312;2023-05-06T06:45:53;95342.59;;;14.83;67.07
11124;BME280;5616;42.692;23.312;2023-05-06T06:48:22;95340.38;;;14.99;66.86
11124;BME280;5616;42.692;23.312;2023-05-06T06:50:48;95340.31;;;15.45;76.32
11124;BME280;5616;42.692;23.312;2023-05-06T06:53:16;95347.47;;;15.76;70.98
11124;BME280;5616;42.692;23.312;2023-05-06T06:55:43;95352.25;;;15.85;65.19
11124;BME280;5616;42.692;23.312;2023-05-06T06:58:10;95347.22;;;15.90;64.82
11124;BME280;5616;42.692;23.312;2023-05-06T07:00:37;95345.22;;;15.86;64.13
11124;BME280;5616;42.692;23.312;2023-05-06T07:03:03;95357.06;;;15.75;64.83
11124;BME280;5616;42.692;23.312;2023-05-06T07:05:32;95357.25;;;15.80;65.84
11124;BME280;5616;42.692;23.312;2023-05-06T07:07:58;95352.66;;;15.82;65.84
11124;BME280;5616;42.692;23.312;2023-05-06T07:10:25;95352.69;;;15.69;64.59
11124;BME280;5616;42.692;23.312;2023-05-06T07:12:52;95355.31;;;15.63;65.04
11124;BME280;5616;42.692;23.312;2023-05-06T07:15:19;95364.28;;;15.73;64.92
11124;BME280;5616;42.692;23.312;2023-05-06T07:17:46;95359.56;;;16.02;64.59
11124;BME280;5616;42.692;23.312;2023-05-06T07:20:13;95358.81;;;15.95;63.96
11124;BME280;5616;42.692;23.312;2023-05-06T07:22:41;95365.22;;;15.99;64.37
11124;BME280;5616;42.692;23.312;2023-05-06T07:25:10;95365.09;;;16.25;65.25
11124;BME280;5616;42.692;23.312;2023-05-06T07:27:36;95362.19;;;16.39;63.89
11124;BME280;5616;42.692;23.312;2023-05-06T07:30:04;95364.72;;;16.59;62.47
11124;BME280;5616;42.692;23.312;2023-05-06T07:32:31;95361.78;;;16.42;63.22
11124;BME280;5616;42.692;23.312;2023-05-06T07:34:58;95363.34;;;16.50;62.92
11124;BME280;5616;42.692;23.312;2023-05-06T07:37:26;95364.47;;;16.92;61.82
11124;BME280;5616;42.692;23.312;2023-05-06T07:39:55;95367.41;;;17.27;60.33
11124;BME280;5616;42.692;23.312;2023-05-06T07:42:22;95362.38;;;17.68;60.86
11124;BME280;5616;42.692;23.312;2023-05-06T07:44:49;95368.81;;;18.02;58.30
11124;BME280;5616;42.692;23.312;2023-05-06T07:47:25;95360.78;;;18.92;56.17
11124;BME280;5616;42.692;23.312;2023-05-06T07:49:53;95365.84;;;20.15;52.02
11124;BME280;5616;42.692;23.312;2023-05-06T07:52:20;95359.34;;;20.74;49.58
11124;BME280;5616;42.692;23.312;2023-05-06T07:54:46;95355.31;;;20.83;49.55
11124;BME280;5616;42.692;23.312;2023-05-06T07:57:15;95358.63;;;20.62;49.17
11124;BME280;5616;42.692;23.312;2023-05-06T07:59:42;95356.97;;;21.17;48.41
11124;BME280;5616;42.692;23.312;2023-05-06T08:02:09;95353.41;;;21.45;47.40
11124;BME280;5616;42.692;23.312;2023-05-06T08:04:36;95350.09;;;21.71;47.42
11124;BME280;5616;42.692;23.312;2023-05-06T08:07:02;95353.47;;;21.67;47.64
11124;BME280;5616;42.692;23.312;2023-05-06T08:09:29;95356.03;;;21.45;47.51
11124;BME280;5616;42.692;23.312;2023-05-06T08:11:56;95345.31;;;22.55;45.02
11124;BME280;5616;42.692;23.312;2023-05-06T08:14:25;95356.16;;;22.85;45.61
11124;BME280;5616;42.692;23.312;2023-05-06T08:16:51;95348.66;;;23.36;43.80
11124;BME280;5616;42.692;23.312;2023-05-06T08:19:18;95354.50;;;23.85;43.02
11124;BME280;5616;42.692;23.312;2023-05-06T08:21:45;95349.78;;;24.59;40.91
11124;BME280;5616;42.692;23.312;2023-05-06T08:24:13;95349.06;;;25.39;38.05
11124;BME280;5616;42.692;23.312;2023-05-06T08:26:40;95349.72;;;26.10;37.16
11124;BME280;5616;42.692;23.312;2023-05-06T08:29:07;95349.00;;;27.31;35.86
11124;BME280;5616;42.692;23.312;2023-05-06T08:31:35;95353.56;;;28.73;31.96
11124;BME280;5616;42.692;23.312;2023-05-06T08:34:01;95345.59;;;28.91;31.99
11124;BME280;5616;42.692;23.312;2023-05-06T08:36:28;95352.75;;;30.56;28.98
11124;BME280;5616;42.692;23.312;2023-05-06T08:38:55;95344.63;;;30.61;29.31
11124;BME280;5616;42.692;23.312;2023-05-06T08:41:23;95352.31;;;30.76;28.66
11124;BME280;5616;42.692;23.312;2023-05-06T08:43:53;95352.59;;;29.84;28.19
11124;BME280;5616;42.692;23.312;2023-05-06T08:46:20;95350.81;;;30.07;28.96
11124;BME280;5616;42.692;23.312;2023-05-06T08:48:48;95356.03;;;30.88;27.82
11124;BME280;5616;42.692;23.312;2023-05-06T08:51:15;95348.38;;;32.24;26.96
11124;BME280;5616;42.692;23.312;2023-05-06T08:53:47;95353.22;;;31.52;26.20
11124;BME280;5616;42.692;23.312;2023-05-06T08:56:14;95347.38;;;32.02;26.69
11124;BME280;5616;42.692;23.312;2023-05-06T08:58:43;95346.84;;;32.31;26.08
11124;BME280;5616;42.692;23.312;2023-05-06T09:01:11;95334.81;;;33.37;24.46
11124;BME280;5616;42.692;23.312;2023-05-06T09:03:37;95334.97;;;33.14;25.17
11124;BME280;5616;42.692;23.312;2023-05-06T09:06:06;95326.88;;;32.46;25.05
11124;BME280;5616;42.692;23.312;2023-05-06T09:08:33;95327.41;;;33.16;24.92
11124;BME280;5616;42.692;23.312;2023-05-06T09:11:00;95322.63;;;32.36;26.34
11124;BME280;5616;42.692;23.312;2023-05-06T09:13:27;95314.38;;;31.68;27.19
11124;BME280;5616;42.692;23.312;2023-05-06T09:15:54;95312.94;;;32.83;25.82
11124;BME280;5616;42.692;23.312;2023-05-06T09:18:21;95315.91;;;32.64;25.78
11124;BME280;5616;42.692;23.312;2023-05-06T09:20:48;95322.25;;;30.98;26.72
11124;BME280;5616;42.692;23.312;2023-05-06T09:23:17;95316.09;;;29.98;28.11
11124;BME280;5616;42.692;23.312;2023-05-06T09:25:46;95307.41;;;28.82;30.95
11124;BME280;5616;42.692;23.312;2023-05-06T09:28:14;95318.88;;;27.98;31.23
11124;BME280;5616;42.692;23.312;2023-05-06T09:30:42;95307.25;;;26.74;36.42
11124;BME280;5616;42.692;23.312;2023-05-06T09:33:10;95301.66;;;26.42;35.66
11124;BME280;5616;42.692;23.312;2023-05-06T09:35:38;95295.63;;;25.62;37.48
11124;BME280;5616;42.692;23.312;2023-05-06T09:38:05;95298.06;;;24.98;36.25
11124;BME280;5616;42.692;23.312;2023-05-06T09:40:34;95289.09;;;25.09;36.32
11124;BME280;5616;42.692;23.312;2023-05-06T09:43:01;95290.38;;;25.27;35.83
11124;BME280;5616;42.692;23.312;2023-05-06T09:45:28;95297.28;;;25.03;36.82
11124;BME280;5616;42.692;23.312;2023-05-06T09:47:56;95290.16;;;24.98;38.38
11124;BME280;5616;42.692;23.312;2023-05-06T09:50:23;95285.66;;;25.09;39.15
11124;BME280;5616;42.692;23.312;2023-05-06T09:52:51;95284.88;;;24.83;38.07
11124;BME280;5616;42.692;23.312;2023-05-06T09:55:18;95283.50;;;24.50;37.83
11124;BME280;5616;42.692;23.312;2023-05-06T09:57:47;95288.13;;;23.46;39.73
11124;BME280;5616;42.692;23.312;2023-05-06T10:00:15;95288.56;;;22.96;40.81
11124;BME280;5616;42.692;23.312;2023-05-06T10:02:43;95283.44;;;22.79;43.10
11124;BME280;5616;42.692;23.312;2023-05-06T10:05:10;95289.69;;;22.73;44.25
11124;BME280;5616;42.692;23.312;2023-05-06T10:07:38;95284.69;;;22.18;44.13
11124;BME280;5616;42.692;23.312;2023-05-06T10:10:08;95291.03;;;21.57;45.55
11124;BME280;5616;42.692;23.312;2023-05-06T10:12:35;95287.44;;;21.63;42.48
11124;BME280;5616;42.692;23.312;2023-05-06T10:15:04;95286.69;;;21.08;43.66
11124;BME280;5616;42.692;23.312;2023-05-06T10:17:33;95283.19;;;20.86;44.33
11124;BME280;5616;42.692;23.312;2023-05-06T10:20:01;95274.03;;;20.71;46.21
11124;BME280;5616;42.692;23.312;2023-05-06T10:22:45;95280.03;;;20.39;45.78
11124;BME280;5616;42.692;23.312;2023-05-06T10:25:19;95279.78;;;19.84;47.66
11124;BME280;5616;42.692;23.312;2023-05-06T10:27:49;95287.59;;;19.56;48.67
11124;BME280;5616;42.692;23.312;2023-05-06T10:30:17;95290.03;;;19.22;50.15
11124;BME280;5616;42.692;23.312;2023-05-06T10:32:45;95283.50;;;19.36;49.88
11124;BME280;5616;42.692;23.312;2023-05-06T10:35:19;95279.75;;;19.56;51.27
11124;BME280;5616;42.692;23.312;2023-05-06T10:37:49;95278.50;;;19.86;50.84
11124;BME280;5616;42.692;23.312;2023-05-06T10:40:17;95274.97;;;20.21;48.44
11124;BME280;5616;42.692;23.312;2023-05-06T10:42:44;95262.75;;;20.54;49.30
11124;BME280;5616;42.692;23.312;2023-05-06T10:45:11;95275.78;;;21.16;46.69
11124;BME280;5616;42.692;23.312;2023-05-06T10:48:06;95267.31;;;21.30;46.51
11124;BME280;5616;42.692;23.312;2023-05-06T10:50:34;95271.53;;;21.31;44.12
11124;BME280;5616;42.692;23.312;2023-05-06T10:53:01;95265.88;;;21.61;45.08
11124;BME280;5616;42.692;23.312;2023-05-06T10:55:29;95274.25;;;22.02;43.56
11124;BME280;5616;42.692;23.312;2023-05-06T10:57:59;95255.84;;;22.02;44.07
11124;BME280;5616;42.692;23.312;2023-05-06T11:00:30;95275.94;;;21.86;42.40
11124;BME280;5616;42.692;23.312;2023-05-06T11:03:00;95265.25;;;21.54;42.19
11124;BME280;5616;42.692;23.312;2023-05-06T11:05:28;95265.44;;;21.48;42.03
11124;BME280;5616;42.692;23.312;2023-05-06T11:08:07;95269.34;;;21.67;40.32
11124;BME280;5616;42.692;23.312;2023-05-06T11:10:35;95263.41;;;21.55;40.62
11124;BME280;5616;42.692;23.312;2023-05-06T11:13:18;95257.97;;;21.61;40.80
11124;BME280;5616;42.692;23.312;2023-05-06T11:15:46;95259.63;;;21.89;40.36
11124;BME280;5616;42.692;23.312;2023-05-06T11:18:40;95269.16;;;21.73;38.85
11124;BME280;5616;42.692;23.312;2023-05-06T11:21:39;95270.31;;;21.82;36.92
11124;BME280;5616;42.692;23.312;2023-05-06T11:24:21;95254.50;;;21.99;37.05
11124;BME280;5616;42.692;23.312;2023-05-06T11:26:49;95250.59;;;22.02;39.63
11124;BME280;5616;42.692;23.312;2023-05-06T11:29:16;95258.28;;;22.08;37.33
11124;BME280;5616;42.692;23.312;2023-05-06T11:31:44;95265.16;;;21.87;36.75
11124;BME280;5616;42.692;23.312;2023-05-06T11:34:13;95255.31;;;21.78;37.88
11124;BME280;5616;42.692;23.312;2023-05-06T11:36:48;95256.25;;;21.88;37.13
11124;BME280;5616;42.692;23.312;2023-05-06T11:39:15;95252.31;;;21.91;37.02
11124;BME280;5616;42.692;23.312;2023-05-06T11:41:42;95260.31;;;21.79;37.99
11124;BME280;5616;42.692;23.312;2023-05-06T11:44:09;95252.41;;;21.79;37.93
11124;BME280;5616;42.692;23.312;2023-05-06T11:46:37;95254.56;;;21.61;38.71
11124;BME280;5616;42.692;23.312;2023-05-06T11:49:03;95260.50;;;21.73;40.33
11124;BME280;5616;42.692;23.312;2023-05-06T11:51:30;95251.88;;;21.77;38.63
11124;BME280;5616;42.692;23.312;2023-05-06T11:54:07;95254.69;;;21.49;39.49
11124;BME280;5616;42.692;23.312;2023-05-06T11:56:47;95256.88;;;21.36;38.62
11124;BME280;5616;42.692;23.312;2023-05-06T11:59:15;95257.44;;;21.59;38.27
11124;BME280;5616;42.692;23.312;2023-05-06T12:01:43;95250.97;;;21.67;37.88
11124;BME280;5616;42.692;23.312;2023-05-06T12:04:11;95254.88;;;21.64;38.62
11124;BME280;5616;42.692;23.312;2023-05-06T12:06:38;95261.97;;;21.64;40.71
11124;BME280;5616;42.692;23.312;2023-05-06T12:09:09;95250.34;;;21.60;38.01
11124;BME280;5616;42.692;23.312;2023-05-06T12:11:37;95250.09;;;21.83;37.20
11124;BME280;5616;42.692;23.312;2023-05-06T12:14:06;95242.34;;;21.93;37.83
11124;BME280;5616;42.692;23.312;2023-05-06T12:16:34;95245.81;;;21.55;39.90
11124;BME280;5616;42.692;23.312;2023-05-06T12:19:02;95233.16;;;21.52;37.97
11124;BME280;5616;42.692;23.312;2023-05-06T12:21:30;95234.03;;;21.36;41.98
11124;BME280;5616;42.692;23.312;2023-05-06T12:23:59;95240.13;;;21.42;38.38
11124;BME280;5616;42.692;23.312;2023-05-06T12:26:27;95232.31;;;21.47;39.40
11124;BME280;5616;42.692;23.312;2023-05-06T12:29:04;95232.78;;;21.22;40.20
11124;BME280;5616;42.692;23.312;2023-05-06T12:31:32;95211.88;;;21.10;41.25
11124;BME280;5616;42.692;23.312;2023-05-06T12:33:59;95227.00;;;21.20;42.79
11124;BME280;5616;42.692;23.312;2023-05-06T12:36:26;95222.47;;;21.37;41.97
11124;BME280;5616;42.692;23.312;2023-05-06T12:38:55;95232.50;;;21.02;44.22
11124;BME280;5616;42.692;23.312;2023-05-06T12:41:26;95217.03;;;21.05;45.54
11124;BME280;5616;42.692;23.312;2023-05-06T12:44:01;95223.97;;;20.95;45.82
11124;BME280;5616;42.692;23.312;2023-05-06T12:46:28;95215.44;;;21.21;42.56
11124;BME280;5616;42.692;23.312;2023-05-06T12:48:56;95223.72;;;21.13;42.46
11124;BME280;5616;42.692;23.312;2023-05-06T12:51:23;95215.75;;;20.69;42.54
11124;BME280;5616;42.692;23.312;2023-05-06T12:53:51;95222.34;;;20.89;44.75
11124;BME280;5616;42.692;23.312;2023-05-06T12:56:18;95223.13;;;20.56;43.52
11124;BME280;5616;42.692;23.312;2023-05-06T12:58:55;95224.00;;;20.45;43.87
11124;BME280;5616;42.692;23.312;2023-05-06T13:01:23;95229.59;;;20.65;42.46
11124;BME280;5616;42.692;23.312;2023-05-06T13:03:50;95223.53;;;20.48;44.54
11124;BME280;5616;42.692;23.312;2023-05-06T13:06:16;95222.09;;;20.73;43.58